Time;durP1;ratioP1;P1;durP2;ratioP2;P2;SDS_P1;SDS_P2;PMS_P1;PMS_P2;Temp;Humidity;BMP_temperature;BMP_pressure;BME280_temperature;BME280_humidity;BME280_pressure;Samples;Min_cycle;Max_cycle;Signal;HPM_P1;HPM_P2
2022/08/16 00:01:51;;;;;;;5.50;3.92;;;;;;;;;;5041907;28;20311;-66
2022/08/16 00:04:18;;;;;;;3.88;3.55;;;;;;;;;;5059255;28;20292;-65
2022/08/16 00:06:46;;;;;;;4.47;3.83;;;;;;;;;;5055009;28;20240;-66
2022/08/16 00:09:15;;;;;;;4.60;4.20;;;;;;;;;;5061270;28;20263;-66
2022/08/16 00:11:43;;;;;;;4.32;3.97;;;;;;;;;;5049404;28;20213;-66
2022/08/16 00:14:13;;;;;;;5.10;3.70;;;;;;;;;;5043647;28;20213;-66
2022/08/16 00:16:41;;;;;;;5.32;4.00;;;;;;;;;;5042076;28;20206;-66
2022/08/16 00:19:31;;;;;;;4.30;3.90;;;;;;;;;;5063903;28;20245;-65
2022/08/16 00:22:08;;;;;;;4.07;3.60;;;;;;;;;;5055340;28;20206;-66
2022/08/16 00:24:42;;;;;;;5.43;3.65;;;;;;;;;;5055722;28;20259;-66
2022/08/16 00:27:12;;;;;;;4.50;3.58;;;;;;;;;;5040287;28;20376;-66
2022/08/16 00:29:40;;;;;;;3.83;3.42;;;;;;;;;;5059046;28;20311;-64
2022/08/16 00:32:08;;;;;;;3.95;3.33;;;;;;;;;;5044520;28;20218;-68
2022/08/16 00:34:37;;;;;;;3.90;3.50;;;;;;;;;;5061853;28;20202;-66
2022/08/16 00:37:13;;;;;;;4.47;3.88;;;;;;;;;;5050327;28;20238;-64
2022/08/16 00:39:43;;;;;;;3.75;3.17;;;;;;;;;;5052615;28;20326;-63
2022/08/16 00:42:13;;;;;;;3.50;3.20;;;;;;;;;;5044380;28;20237;-66
2022/08/16 00:45:04;;;;;;;3.97;3.40;;;;;;;;;;5047245;28;20206;-64
2022/08/16 00:47:36;;;;;;;3.80;3.50;;;;;;;;;;5055216;28;20201;-66
2022/08/16 00:50:04;;;;;;;3.55;3.25;;;;;;;;;;5045290;28;20267;-66
2022/08/16 00:52:38;;;;;;;3.25;3.05;;;;;;;;;;5054697;28;20578;-68
2022/08/16 00:55:18;;;;;;;3.90;3.33;;;;;;;;;;5047235;28;20629;-64
2022/08/16 00:57:47;;;;;;;5.55;3.42;;;;;;;;;;5045381;28;20210;-65
2022/08/16 01:00:28;;;;;;;4.28;3.88;;;;;;;;;;5071313;28;20852;-64
2022/08/16 01:02:56;;;;;;;4.78;3.33;;;;;;;;;;5043834;28;20296;-67
2022/08/16 01:05:24;;;;;;;3.30;2.97;;;;;;;;;;5045891;28;20283;-68
2022/08/16 01:07:52;;;;;;;3.42;3.22;;;;;;;;;;5037976;28;20209;-67
2022/08/16 01:10:21;;;;;;;3.83;3.50;;;;;;;;;;5059737;28;20248;-66
2022/08/16 01:13:01;;;;;;;4.53;3.17;;;;;;;;;;5056056;28;20216;-66
2022/08/16 01:15:32;;;;;;;4.13;3.83;;;;;;;;;;5053328;28;20308;-68
2022/08/16 01:18:00;;;;;;;3.90;2.95;;;;;;;;;;5052303;28;20275;-67
2022/08/16 01:20:31;;;;;;;3.78;3.47;;;;;;;;;;5040106;28;20627;-68
2022/08/16 01:23:03;;;;;;;3.92;3.63;;;;;;;;;;5060185;28;20208;-68
2022/08/16 01:25:36;;;;;;;3.60;3.30;;;;;;;;;;5048531;28;23288;-67
2022/08/16 01:28:07;;;;;;;3.78;3.47;;;;;;;;;;5044812;28;20258;-66
2022/08/16 01:30:36;;;;;;;4.25;3.30;;;;;;;;;;5063669;28;20228;-67
2022/08/16 01:33:16;;;;;;;4.45;3.28;;;;;;;;;;5042012;28;20209;-66
2022/08/16 01:35:49;;;;;;;3.90;3.60;;;;;;;;;;5054199;28;20209;-66
2022/08/16 01:38:27;;;;;;;3.72;3.30;;;;;;;;;;5062135;28;20220;-66
2022/08/16 01:40:58;;;;;;;4.80;3.53;;;;;;;;;;5057250;28;20275;-68
2022/08/16 01:43:29;;;;;;;3.70;3.40;;;;;;;;;;5050837;28;20208;-66
2022/08/16 01:45:59;;;;;;;3.67;3.30;;;;;;;;;;5053890;28;20209;-67
2022/08/16 01:48:47;;;;;;;3.45;3.20;;;;;;;;;;5049371;28;20338;-67
2022/08/16 01:51:16;;;;;;;3.88;3.58;;;;;;;;;;5043857;28;20204;-66
2022/08/16 01:53:44;;;;;;;3.73;3.43;;;;;;;;;;5069339;28;20275;-68
2022/08/16 01:56:22;;;;;;;6.03;3.60;;;;;;;;;;5061406;28;20671;-67
2022/08/16 01:58:53;;;;;;;3.75;3.45;;;;;;;;;;5050737;28;20225;-64
2022/08/16 02:01:21;;;;;;;4.32;3.80;;;;;;;;;;5075902;28;20221;-66
2022/08/16 02:03:52;;;;;;;4.00;3.70;;;;;;;;;;5051823;28;20201;-66
2022/08/16 02:06:26;;;;;;;3.58;3.28;;;;;;;;;;5046187;28;20686;-67
2022/08/16 02:09:04;;;;;;;3.97;3.47;;;;;;;;;;5056628;28;20348;-67
2022/08/16 02:11:32;;;;;;;3.80;3.53;;;;;;;;;;5041456;28;20210;-67
2022/08/16 02:14:21;;;;;;;5.00;3.77;;;;;;;;;;5065451;28;20224;-65
2022/08/16 02:16:53;;;;;;;6.65;3.90;;;;;;;;;;5065449;28;20562;-65
2022/08/16 02:19:22;;;;;;;4.20;3.85;;;;;;;;;;5061711;28;20221;-65
2022/08/16 02:21:51;;;;;;;4.00;3.70;;;;;;;;;;5040462;28;20658;-66
2022/08/16 02:24:40;;;;;;;4.07;3.70;;;;;;;;;;5054711;28;20198;-67
2022/08/16 02:27:09;;;;;;;4.00;3.57;;;;;;;;;;5059951;28;20295;-66
2022/08/16 02:29:36;;;;;;;6.13;3.97;;;;;;;;;;5045194;28;20217;-67
2022/08/16 02:32:08;;;;;;;4.07;3.67;;;;;;;;;;5057567;28;20216;-68
2022/08/16 02:34:56;;;;;;;4.10;3.60;;;;;;;;;;5055640;28;20205;-66
2022/08/16 02:37:24;;;;;;;3.83;3.53;;;;;;;;;;5062619;28;20846;-66
2022/08/16 02:40:15;;;;;;;3.97;3.57;;;;;;;;;;5040569;28;20225;-67
2022/08/16 02:42:46;;;;;;;5.63;3.70;;;;;;;;;;5052767;28;20207;-66
2022/08/16 02:45:16;;;;;;;3.90;3.53;;;;;;;;;;5043300;28;20241;-66
2022/08/16 02:47:45;;;;;;;3.67;3.20;;;;;;;;;;5059411;28;20213;-66
2022/08/16 02:50:33;;;;;;;3.83;3.53;;;;;;;;;;5058888;28;20282;-66
2022/08/16 02:53:20;;;;;;;4.30;3.90;;;;;;;;;;5041803;28;20210;-66
2022/08/16 02:55:51;;;;;;;4.28;3.75;;;;;;;;;;5057943;28;20259;-67
2022/08/16 02:58:21;;;;;;;4.17;3.60;;;;;;;;;;5045534;28;20212;-66
2022/08/16 03:00:51;;;;;;;4.95;3.92;;;;;;;;;;5063730;28;20316;-67
2022/08/16 03:03:22;;;;;;;4.23;3.70;;;;;;;;;;5025874;28;20212;-67
2022/08/16 03:05:50;;;;;;;4.13;3.70;;;;;;;;;;5059932;28;20229;-66
2022/08/16 03:08:20;;;;;;;4.40;4.00;;;;;;;;;;5050838;28;20206;-67
2022/08/16 03:11:08;;;;;;;4.77;3.77;;;;;;;;;;5066133;28;20266;-66
2022/08/16 03:13:54;;;;;;;4.27;3.70;;;;;;;;;;5045104;28;20228;-67
2022/08/16 03:16:23;;;;;;;4.32;3.90;;;;;;;;;;5058343;28;20300;-65
2022/08/16 03:19:04;;;;;;;4.40;3.80;;;;;;;;;;5046893;28;20315;-66
2022/08/16 03:21:32;;;;;;;5.10;3.80;;;;;;;;;;5050943;28;20236;-68
2022/08/16 03:24:05;;;;;;;4.07;3.77;;;;;;;;;;5048130;28;20301;-65
2022/08/16 03:26:52;;;;;;;3.80;3.55;;;;;;;;;;5051101;28;20310;-66
2022/08/16 03:29:26;;;;;;;4.13;3.70;;;;;;;;;;5050951;28;21965;-64
2022/08/16 03:31:57;;;;;;;5.23;4.27;;;;;;;;;;5055496;28;20290;-66
2022/08/16 03:34:26;;;;;;;4.33;3.93;;;;;;;;;;5066176;28;20317;-66
2022/08/16 03:36:54;;;;;;;4.70;3.90;;;;;;;;;;5041414;28;20220;-67
2022/08/16 03:39:21;;;;;;;4.23;3.83;;;;;;;;;;5066237;28;20232;-67
2022/08/16 03:41:50;;;;;;;5.40;4.00;;;;;;;;;;5059371;28;21344;-68
2022/08/16 03:44:27;;;;;;;4.63;4.23;;;;;;;;;;5038764;28;21079;-67
2022/08/16 03:47:17;;;;;;;5.23;4.47;;;;;;;;;;5032917;28;20613;-68
2022/08/16 03:49:50;;;;;;;4.23;3.80;;;;;;;;;;5065648;28;20221;-67
2022/08/16 03:52:19;;;;;;;4.33;3.93;;;;;;;;;;5060201;28;20836;-67
2022/08/16 03:54:50;;;;;;;4.60;3.70;;;;;;;;;;5066555;28;20224;-66
2022/08/16 03:57:26;;;;;;;5.65;4.18;;;;;;;;;;5061624;28;20225;-66
2022/08/16 04:00:12;;;;;;;4.70;4.17;;;;;;;;;;5041663;28;20224;-68
2022/08/16 04:03:05;;;;;;;4.40;4.00;;;;;;;;;;5066303;28;20206;-65
2022/08/16 04:05:38;;;;;;;4.30;4.00;;;;;;;;;;5047576;28;20621;-66
2022/08/16 04:08:06;;;;;;;4.80;4.40;;;;;;;;;;5067093;28;20217;-67
2022/08/16 04:10:54;;;;;;;4.15;3.72;;;;;;;;;;5053964;28;20249;-65
2022/08/16 04:13:24;;;;;;;4.57;4.17;;;;;;;;;;5051528;28;20202;-66
2022/08/16 04:16:12;;;;;;;4.33;3.93;;;;;;;;;;5047725;28;20622;-67
2022/08/16 04:18:54;;;;;;;4.67;4.27;;;;;;;;;;5056387;28;20197;-66
2022/08/16 04:21:29;;;;;;;4.33;4.03;;;;;;;;;;5051025;28;20221;-67
2022/08/16 04:23:58;;;;;;;6.68;4.18;;;;;;;;;;5061959;28;20201;-66
2022/08/16 04:26:26;;;;;;;4.60;4.07;;;;;;;;;;5051532;28;20251;-67
2022/08/16 04:28:58;;;;;;;4.57;4.20;;;;;;;;;;5076132;28;20201;-66
2022/08/16 04:31:46;;;;;;;4.97;4.23;;;;;;;;;;5065581;28;20627;-66
2022/08/16 04:34:28;;;;;;;4.43;3.77;;;;;;;;;;5042731;28;20211;-67
2022/08/16 04:36:57;;;;;;;4.20;3.90;;;;;;;;;;5068058;28;20216;-67
2022/08/16 04:39:29;;;;;;;4.40;4.00;;;;;;;;;;5051345;28;20241;-67
2022/08/16 04:42:12;;;;;;;4.60;4.20;;;;;;;;;;5049971;28;20225;-67
2022/08/16 04:44:40;;;;;;;4.47;4.10;;;;;;;;;;5059001;28;20667;-67
2022/08/16 04:47:22;;;;;;;4.20;3.90;;;;;;;;;;5052303;28;20216;-66
2022/08/16 04:49:51;;;;;;;4.80;3.80;;;;;;;;;;5051780;28;20232;-66
2022/08/16 04:52:19;;;;;;;4.23;3.83;;;;;;;;;;5055132;28;20300;-66
2022/08/16 04:55:03;;;;;;;4.10;3.70;;;;;;;;;;5047725;28;20209;-66
2022/08/16 04:57:31;;;;;;;4.63;3.90;;;;;;;;;;5057145;28;20206;-68
2022/08/16 04:59:58;;;;;;;4.13;3.83;;;;;;;;;;5065046;28;20235;-65
2022/08/16 05:02:48;;;;;;;4.60;4.20;;;;;;;;;;5046839;28;20217;-67
2022/08/16 05:05:23;;;;;;;5.53;4.30;;;;;;;;;;5076771;28;20218;-67
2022/08/16 05:07:56;;;;;;;4.68;3.60;;;;;;;;;;5048881;28;20312;-66
2022/08/16 05:10:27;;;;;;;4.93;3.75;;;;;;;;;;5050453;28;20750;-66
2022/08/16 05:12:56;;;;;;;5.93;3.97;;;;;;;;;;5049174;28;20293;-67
2022/08/16 05:15:24;;;;;;;5.32;3.70;;;;;;;;;;5044690;28;20653;-67
2022/08/16 05:17:51;;;;;;;4.03;3.63;;;;;;;;;;5062244;28;20230;-66
2022/08/16 05:20:26;;;;;;;4.07;3.78;;;;;;;;;;5039687;28;20217;-66
2022/08/16 05:23:05;;;;;;;4.03;3.72;;;;;;;;;;5063973;28;20272;-68
2022/08/16 05:25:33;;;;;;;4.18;3.80;;;;;;;;;;5048961;28;20332;-67
2022/08/16 05:28:14;;;;;;;3.90;3.60;;;;;;;;;;5068406;28;20224;-67
2022/08/16 05:30:41;;;;;;;4.13;3.67;;;;;;;;;;5066980;28;20221;-68
2022/08/16 05:33:09;;;;;;;4.07;3.70;;;;;;;;;;5066255;28;20201;-66
2022/08/16 05:35:43;;;;;;;4.25;3.85;;;;;;;;;;5067556;28;20198;-67
2022/08/16 05:38:26;;;;;;;4.10;3.75;;;;;;;;;;5047829;28;20226;-67
2022/08/16 05:41:06;;;;;;;4.07;3.78;;;;;;;;;;5065521;28;20283;-67
2022/08/16 05:43:36;;;;;;;3.58;3.28;;;;;;;;;;5046662;28;20205;-67
2022/08/16 05:46:16;;;;;;;4.55;3.33;;;;;;;;;;5061481;28;20216;-67
2022/08/16 05:48:58;;;;;;;3.55;2.90;;;;;;;;;;5050205;28;20210;-67
2022/08/16 05:51:35;;;;;;;2.88;2.67;;;;;;;;;;5051304;28;20201;-67
2022/08/16 05:54:08;;;;;;;2.92;2.58;;;;;;;;;;5065398;28;20706;-66
2022/08/16 05:56:41;;;;;;;3.00;2.72;;;;;;;;;;5065124;28;20205;-67
2022/08/16 05:59:09;;;;;;;2.80;2.42;;;;;;;;;;5047312;28;20229;-67
2022/08/16 06:01:37;;;;;;;2.60;2.40;;;;;;;;;;5056837;28;20226;-67
2022/08/16 06:04:09;;;;;;;2.80;2.45;;;;;;;;;;5060344;28;20230;-67
2022/08/16 06:06:56;;;;;;;3.33;2.85;;;;;;;;;;5059581;28;20205;-67
2022/08/16 06:09:25;;;;;;;3.17;2.97;;;;;;;;;;5056221;28;20217;-67
2022/08/16 06:12:14;;;;;;;4.03;3.40;;;;;;;;;;5075773;28;20295;-67
2022/08/16 06:15:00;;;;;;;3.67;3.38;;;;;;;;;;5068619;28;20296;-67
2022/08/16 06:17:30;;;;;;;6.45;3.88;;;;;;;;;;5044714;28;20205;-66
2022/08/16 06:20:13;;;;;;;5.80;3.55;;;;;;;;;;5054513;28;20221;-65
2022/08/16 06:22:43;;;;;;;4.00;3.60;;;;;;;;;;5067259;28;20651;-67
2022/08/16 06:25:30;;;;;;;4.20;3.80;;;;;;;;;;5063705;28;20197;-67
2022/08/16 06:28:06;;;;;;;4.28;3.90;;;;;;;;;;5043191;28;20201;-66
2022/08/16 06:30:35;;;;;;;5.35;3.80;;;;;;;;;;5079497;28;20229;-65
2022/08/16 06:33:10;;;;;;;4.65;4.03;;;;;;;;;;5045667;28;20209;-65
2022/08/16 06:35:38;;;;;;;4.85;3.90;;;;;;;;;;5050217;28;20224;-67
2022/08/16 06:38:08;;;;;;;5.85;4.18;;;;;;;;;;5067036;28;20209;-65
2022/08/16 06:40:55;;;;;;;4.03;3.70;;;;;;;;;;5065191;28;20230;-66
2022/08/16 06:43:23;;;;;;;3.92;3.63;;;;;;;;;;5048856;28;20205;-65
2022/08/16 06:45:54;;;;;;;6.40;4.35;;;;;;;;;;5067856;28;20240;-66
2022/08/16 06:48:21;;;;;;;4.28;3.78;;;;;;;;;;5054272;28;20238;-66
2022/08/16 06:51:00;;;;;;;5.32;4.80;;;;;;;;;;5058431;28;20217;-67
2022/08/16 06:53:28;;;;;;;5.20;4.80;;;;;;;;;;5068692;28;20664;-68
2022/08/16 06:55:58;;;;;;;5.78;4.60;;;;;;;;;;5072330;28;20205;-67
2022/08/16 06:58:26;;;;;;;6.85;4.78;;;;;;;;;;5065357;28;20197;-66
2022/08/16 07:00:58;;;;;;;6.90;4.85;;;;;;;;;;5050332;28;20225;-66
2022/08/16 07:03:26;;;;;;;5.22;4.60;;;;;;;;;;5055027;28;20585;-67
2022/08/16 07:05:59;;;;;;;5.07;4.57;;;;;;;;;;5062513;28;20687;-67
2022/08/16 07:08:27;;;;;;;6.45;4.45;;;;;;;;;;5063929;28;20675;-65
2022/08/16 07:10:55;;;;;;;8.20;4.68;;;;;;;;;;5063518;28;20766;-66
2022/08/16 07:13:22;;;;;;;5.78;4.18;;;;;;;;;;5064624;28;20208;-67
2022/08/16 07:16:13;;;;;;;4.30;3.90;;;;;;;;;;5049614;28;20268;-65
2022/08/16 07:18:42;;;;;;;4.80;4.40;;;;;;;;;;5056851;28;20208;-67
2022/08/16 07:21:28;;;;;;;5.53;4.43;;;;;;;;;;5064173;28;20252;-66
2022/08/16 07:24:16;;;;;;;5.05;4.63;;;;;;;;;;5051391;28;20201;-67
2022/08/16 07:27:00;;;;;;;5.75;4.97;;;;;;;;;;5062355;28;20263;-68
2022/08/16 07:29:28;;;;;;;6.20;5.13;;;;;;;;;;5055528;28;20222;-67
2022/08/16 07:31:58;;;;;;;6.75;4.57;;;;;;;;;;5071683;28;20206;-66
2022/08/16 07:34:27;;;;;;;5.85;4.47;;;;;;;;;;5043334;28;20213;-67
2022/08/16 07:37:14;;;;;;;5.68;4.65;;;;;;;;;;5052960;28;20219;-67
2022/08/16 07:39:43;;;;;;;5.07;4.68;;;;;;;;;;5049211;28;20789;-67
2022/08/16 07:42:11;;;;;;;5.82;4.72;;;;;;;;;;5060222;28;20229;-68
2022/08/16 07:44:54;;;;;;;6.03;4.43;;;;;;;;;;5047442;28;20198;-66
2022/08/16 07:47:23;;;;;;;5.70;5.18;;;;;;;;;;5047545;28;20304;-67
2022/08/16 07:49:59;;;;;;;7.22;4.70;;;;;;;;;;5053285;28;20225;-67
2022/08/16 07:52:31;;;;;;;7.22;5.00;;;;;;;;;;5065763;28;20279;-67
2022/08/16 07:54:59;;;;;;;5.25;4.10;;;;;;;;;;5049725;28;20229;-67
2022/08/16 07:57:27;;;;;;;4.65;4.25;;;;;;;;;;5064540;28;20283;-67
2022/08/16 07:59:54;;;;;;;7.80;4.93;;;;;;;;;;5065268;28;20854;-67
2022/08/16 08:02:24;;;;;;;5.82;5.18;;;;;;;;;;5051887;28;20221;-66
2022/08/16 08:04:54;;;;;;;5.78;4.43;;;;;;;;;;5052168;28;20219;-67
2022/08/16 08:07:22;;;;;;;7.43;4.45;;;;;;;;;;5051647;28;20233;-65
2022/08/16 08:09:54;;;;;;;5.20;4.53;;;;;;;;;;5049113;28;20236;-65
2022/08/16 08:12:22;;;;;;;6.00;4.50;;;;;;;;;;5052499;28;20215;-66
2022/08/16 08:15:04;;;;;;;5.32;4.45;;;;;;;;;;5066751;28;20214;-67
2022/08/16 08:17:38;;;;;;;7.28;4.68;;;;;;;;;;5054803;28;20266;-66
2022/08/16 08:20:12;;;;;;;6.88;4.53;;;;;;;;;;5063058;28;20242;-67
2022/08/16 08:22:50;;;;;;;5.32;4.80;;;;;;;;;;5061018;28;20221;-66
2022/08/16 08:25:17;;;;;;;4.97;4.53;;;;;;;;;;5046443;28;20213;-68
2022/08/16 08:27:45;;;;;;;5.03;4.53;;;;;;;;;;5073229;28;20230;-65
2022/08/16 08:30:13;;;;;;;5.57;4.10;;;;;;;;;;5062557;28;20226;-67
2022/08/16 08:33:01;;;;;;;5.47;4.43;;;;;;;;;;5058820;28;20216;-67
2022/08/16 08:35:29;;;;;;;4.80;4.25;;;;;;;;;;5058460;28;20695;-67
2022/08/16 08:37:56;;;;;;;4.68;4.28;;;;;;;;;;5059681;28;20699;-67
2022/08/16 08:40:26;;;;;;;5.75;4.32;;;;;;;;;;5049402;28;20643;-67
2022/08/16 08:42:55;;;;;;;4.70;4.30;;;;;;;;;;5063333;28;20313;-68
2022/08/16 08:45:37;;;;;;;4.60;4.18;;;;;;;;;;5056191;28;20336;-67
2022/08/16 08:48:15;;;;;;;4.72;4.25;;;;;;;;;;5057889;28;20216;-66
2022/08/16 08:51:05;;;;;;;4.60;4.13;;;;;;;;;;5061383;28;20274;-66
2022/08/16 08:53:36;;;;;;;4.50;4.10;;;;;;;;;;5047499;28;20296;-66
2022/08/16 08:56:05;;;;;;;4.45;4.10;;;;;;;;;;5067294;28;20202;-66
2022/08/16 08:58:51;;;;;;;5.53;4.13;;;;;;;;;;5053313;28;20196;-67
2022/08/16 09:01:27;;;;;;;5.65;4.05;;;;;;;;;;5049083;28;20254;-67
2022/08/16 09:04:02;;;;;;;4.55;4.13;;;;;;;;;;5065137;28;20612;-66
2022/08/16 09:06:31;;;;;;;4.28;3.88;;;;;;;;;;5058773;28;20201;-66
2022/08/16 09:08:59;;;;;;;4.40;4.00;;;;;;;;;;5048013;28;20247;-67
2022/08/16 09:11:27;;;;;;;4.43;3.95;;;;;;;;;;5063743;28;20209;-66
2022/08/16 09:14:07;;;;;;;5.13;4.07;;;;;;;;;;5047759;28;20212;-66
2022/08/16 09:16:50;;;;;;;5.60;4.10;;;;;;;;;;5065770;28;20285;-65
2022/08/16 09:19:32;;;;;;;4.60;3.83;;;;;;;;;;5064037;28;20251;-67
2022/08/16 09:22:02;;;;;;;4.20;3.88;;;;;;;;;;5055019;28;20320;-67
2022/08/16 09:24:30;;;;;;;4.97;4.30;;;;;;;;;;5042952;28;20209;-66
2022/08/16 09:27:18;;;;;;;4.90;4.15;;;;;;;;;;5073534;28;20233;-66
2022/08/16 09:29:45;;;;;;;4.65;4.15;;;;;;;;;;5060551;28;20229;-66
2022/08/16 09:32:25;;;;;;;4.60;3.92;;;;;;;;;;5058394;28;20212;-66
2022/08/16 09:34:57;;;;;;;5.15;3.50;;;;;;;;;;5066747;28;20304;-66
2022/08/16 09:37:25;;;;;;;5.40;4.00;;;;;;;;;;5046138;28;20622;-66
2022/08/16 09:39:57;;;;;;;3.88;3.47;;;;;;;;;;5047300;28;20244;-67
2022/08/16 09:42:27;;;;;;;4.20;3.53;;;;;;;;;;5052374;28;20330;-67
2022/08/16 09:44:54;;;;;;;5.18;4.00;;;;;;;;;;5068369;28;20201;-67
2022/08/16 09:47:42;;;;;;;5.35;3.70;;;;;;;;;;5047014;28;20205;-67
2022/08/16 09:50:25;;;;;;;6.03;3.70;;;;;;;;;;5069075;28;20270;-68
2022/08/16 09:53:08;;;;;;;5.05;3.65;;;;;;;;;;5068838;28;20205;-68
2022/08/16 09:55:47;;;;;;;5.78;3.85;;;;;;;;;;5067585;28;20202;-67
2022/08/16 09:58:16;;;;;;;4.38;3.70;;;;;;;;;;5065968;28;20226;-67
2022/08/16 10:01:03;;;;;;;5.07;3.78;;;;;;;;;;5048487;28;20237;-67
2022/08/16 10:03:31;;;;;;;4.35;3.95;;;;;;;;;;5066927;28;20236;-67
2022/08/16 10:05:58;;;;;;;4.55;4.10;;;;;;;;;;5065996;28;20217;-67
2022/08/16 10:08:26;;;;;;;4.53;4.05;;;;;;;;;;5069602;28;20208;-67
2022/08/16 10:13:50;;;;;;;5.20;3.80;;;;;;;;;;5071892;28;20206;-67
2022/08/16 10:16:19;;;;;;;4.82;4.10;;;;;;;;;;5046350;28;20212;-67
2022/08/16 10:18:48;;;;;;;3.65;3.35;;;;;;;;;;5050912;28;20904;-67
2022/08/16 10:21:33;;;;;;;4.30;3.90;;;;;;;;;;5067050;28;20259;-67
2022/08/16 10:24:01;;;;;;;4.30;3.70;;;;;;;;;;5065402;28;20245;-67
2022/08/16 10:26:29;;;;;;;5.28;3.47;;;;;;;;;;5049621;28;20216;-67
2022/08/16 10:29:17;;;;;;;4.30;3.35;;;;;;;;;;5069281;28;20661;-68
2022/08/16 10:31:47;;;;;;;4.13;3.22;;;;;;;;;;5047526;28;20667;-67
2022/08/16 10:34:20;;;;;;;4.93;3.20;;;;;;;;;;5047622;28;20199;-68
2022/08/16 10:36:58;;;;;;;8.00;3.60;;;;;;;;;;5040410;28;20205;-67
2022/08/16 10:39:25;;;;;;;3.88;3.50;;;;;;;;;;5055842;28;20222;-67
2022/08/16 10:42:07;;;;;;;6.10;3.55;;;;;;;;;;5059912;28;20737;-67
2022/08/16 10:44:34;;;;;;;3.60;2.97;;;;;;;;;;5064966;28;20208;-67
2022/08/16 10:47:02;;;;;;;5.05;3.53;;;;;;;;;;5044698;28;20210;-67
2022/08/16 10:49:31;;;;;;;4.88;2.97;;;;;;;;;;5065908;28;20758;-66
2022/08/16 10:51:58;;;;;;;5.82;3.10;;;;;;;;;;5062634;28;20636;-66
2022/08/16 10:54:44;;;;;;;3.95;3.05;;;;;;;;;;5043997;28;20207;-66
2022/08/16 10:57:32;;;;;;;9.35;3.50;;;;;;;;;;5041871;28;20339;-67
2022/08/16 11:00:05;;;;;;;4.25;3.42;;;;;;;;;;5042287;28;20730;-64
2022/08/16 11:02:51;;;;;;;3.45;3.15;;;;;;;;;;5074051;28;20229;-66
2022/08/16 11:05:28;;;;;;;3.30;3.00;;;;;;;;;;5059731;28;20210;-65
2022/08/16 11:08:47;;;;;;;3.53;2.95;;;;;;;;;;5064214;28;20208;-66
2022/08/16 11:11:46;;;;;;;4.95;2.97;;;;;;;;;;5063225;28;20218;-66
2022/08/16 11:14:34;;;;;;;4.15;2.92;;;;;;;;;;5056361;28;20221;-67
2022/08/16 11:17:05;;;;;;;4.03;3.20;;;;;;;;;;5062266;28;20241;-66
2022/08/16 11:19:40;;;;;;;4.43;2.97;;;;;;;;;;5065519;28;20220;-66
2022/08/16 11:22:28;;;;;;;4.68;3.03;;;;;;;;;;5060820;28;20229;-65
2022/08/16 11:25:17;;;;;;;3.65;2.85;;;;;;;;;;5060815;28;20202;-66
2022/08/16 11:28:09;;;;;;;3.10;2.80;;;;;;;;;;5048259;28;20293;-66
2022/08/16 11:30:37;;;;;;;5.50;3.20;;;;;;;;;;5066767;28;20233;-65
2022/08/16 11:33:07;;;;;;;4.50;2.90;;;;;;;;;;5058171;28;20214;-66
2022/08/16 11:35:37;;;;;;;4.60;3.42;;;;;;;;;;5061468;28;20201;-67
2022/08/16 11:38:24;;;;;;;4.80;3.00;;;;;;;;;;5050121;28;20216;-67
2022/08/16 11:41:12;;;;;;;3.92;2.95;;;;;;;;;;5054884;28;20253;-67
2022/08/16 11:43:43;;;;;;;3.05;2.85;;;;;;;;;;5057999;28;20221;-67
2022/08/16 11:46:14;;;;;;;6.32;3.22;;;;;;;;;;5057793;28;20814;-66
2022/08/16 11:49:02;;;;;;;5.75;3.15;;;;;;;;;;5054287;28;20595;-68
2022/08/16 11:51:29;;;;;;;4.68;3.30;;;;;;;;;;5065029;28;20194;-67
2022/08/16 11:53:57;;;;;;;4.18;3.03;;;;;;;;;;5065657;28;20207;-67
2022/08/16 11:56:24;;;;;;;3.22;2.95;;;;;;;;;;5068951;28;22156;-67
2022/08/16 11:59:12;;;;;;;3.10;2.70;;;;;;;;;;5060059;28;20225;-67
2022/08/16 12:01:39;;;;;;;3.30;3.00;;;;;;;;;;5048102;28;20201;-67
2022/08/16 12:04:22;;;;;;;6.32;3.08;;;;;;;;;;5061474;28;20218;-67
2022/08/16 12:06:52;;;;;;;5.63;2.80;;;;;;;;;;5047443;28;20204;-67
2022/08/16 12:09:21;;;;;;;5.32;3.33;;;;;;;;;;5051682;28;20213;-67
2022/08/16 12:11:51;;;;;;;4.50;2.75;;;;;;;;;;5062981;28;20217;-68
2022/08/16 12:14:20;;;;;;;5.13;3.13;;;;;;;;;;5056219;28;20224;-67
2022/08/16 12:16:50;;;;;;;4.45;3.20;;;;;;;;;;5075997;28;21761;-67
2022/08/16 12:19:23;;;;;;;3.65;2.95;;;;;;;;;;5064921;28;20225;-67
2022/08/16 12:22:02;;;;;;;5.10;3.15;;;;;;;;;;5055488;28;20271;-67
2022/08/16 12:24:45;;;;;;;5.10;3.47;;;;;;;;;;5044034;28;20209;-67
2022/08/16 12:27:19;;;;;;;3.50;2.90;;;;;;;;;;5059728;28;20600;-67
2022/08/16 12:29:50;;;;;;;5.63;3.42;;;;;;;;;;5055793;28;20241;-67
2022/08/16 12:32:19;;;;;;;3.00;2.75;;;;;;;;;;5057374;28;20201;-67
2022/08/16 12:35:06;;;;;;;3.20;2.90;;;;;;;;;;5047824;28;20214;-66
2022/08/16 12:37:33;;;;;;;3.03;2.70;;;;;;;;;;5052207;28;20258;-66
2022/08/16 12:40:01;;;;;;;3.17;2.95;;;;;;;;;;5045323;28;20217;-67
2022/08/16 12:42:31;;;;;;;6.32;3.38;;;;;;;;;;5061702;28;20209;-66
2022/08/16 12:45:07;;;;;;;4.05;3.00;;;;;;;;;;5075604;28;20916;-65
2022/08/16 12:50:43;;;;;;;4.22;2.95;;;;;;;;;;5061321;28;20643;-66
2022/08/16 12:53:16;;;;;;;3.70;2.58;;;;;;;;;;5063203;28;20305;-65
2022/08/16 12:55:44;;;;;;;3.05;2.75;;;;;;;;;;5028018;28;20955;-66
2022/08/16 12:58:14;;;;;;;4.10;2.60;;;;;;;;;;5060262;28;20328;-67
2022/08/16 13:01:02;;;;;;;4.32;2.53;;;;;;;;;;5060317;28;20261;-66
2022/08/16 13:03:31;;;;;;;2.70;2.50;;;;;;;;;;5048694;28;20320;-67
2022/08/16 13:06:07;;;;;;;4.00;2.90;;;;;;;;;;5062085;28;20202;-66
2022/08/16 13:08:45;;;;;;;5.07;2.50;;;;;;;;;;5056144;28;20221;-66
2022/08/16 13:11:14;;;;;;;2.53;2.30;;;;;;;;;;5073113;28;20206;-66
2022/08/16 13:13:44;;;;;;;5.65;2.47;;;;;;;;;;5050070;28;20206;-66
2022/08/16 13:16:12;;;;;;;2.97;2.70;;;;;;;;;;5057902;28;20612;-65
2022/08/16 13:18:46;;;;;;;2.83;2.55;;;;;;;;;;5033428;28;20213;-67
2022/08/16 13:21:20;;;;;;;2.70;2.50;;;;;;;;;;5067426;28;20262;-66
2022/08/16 13:23:50;;;;;;;2.80;2.60;;;;;;;;;;5046899;28;20228;-66
2022/08/16 13:26:21;;;;;;;3.42;2.50;;;;;;;;;;5068094;28;20202;-68
2022/08/16 13:28:49;;;;;;;3.55;2.60;;;;;;;;;;5058344;28;20660;-67
2022/08/16 13:31:17;;;;;;;2.60;2.40;;;;;;;;;;5051141;28;20205;-68
2022/08/16 13:33:44;;;;;;;3.50;2.72;;;;;;;;;;5058677;28;20688;-67
2022/08/16 13:36:12;;;;;;;4.70;2.83;;;;;;;;;;5045162;28;20222;-68
2022/08/16 13:39:00;;;;;;;3.25;2.47;;;;;;;;;;5058580;28;20268;-67
2022/08/16 13:41:28;;;;;;;2.72;2.40;;;;;;;;;;5056030;28;21074;-67
2022/08/16 13:43:57;;;;;;;3.55;2.70;;;;;;;;;;5056106;28;20232;-67
2022/08/16 13:46:26;;;;;;;2.70;2.50;;;;;;;;;;5068257;28;20213;-67
2022/08/16 13:48:54;;;;;;;3.50;2.35;;;;;;;;;;5063239;28;20283;-66
2022/08/16 13:51:24;;;;;;;5.10;2.70;;;;;;;;;;5069110;28;20204;-67
2022/08/16 13:53:58;;;;;;;2.85;2.65;;;;;;;;;;5067407;28;20244;-67
2022/08/16 13:56:32;;;;;;;4.43;2.45;;;;;;;;;;5060370;28;20213;-67
2022/08/16 13:59:07;;;;;;;3.88;2.80;;;;;;;;;;5064670;28;20225;-67
2022/08/16 14:01:47;;;;;;;2.90;2.65;;;;;;;;;;5043945;28;20194;-67
2022/08/16 14:04:23;;;;;;;2.88;2.40;;;;;;;;;;5044948;28;20241;-67
2022/08/16 14:06:53;;;;;;;2.90;2.50;;;;;;;;;;5057164;28;20202;-67
2022/08/16 14:09:22;;;;;;;3.83;2.65;;;;;;;;;;5059492;28;20770;-66
2022/08/16 14:11:50;;;;;;;3.13;2.55;;;;;;;;;;5061173;28;20200;-67
2022/08/16 14:14:20;;;;;;;3.13;2.45;;;;;;;;;;5059837;28;20210;-67
2022/08/16 14:16:55;;;;;;;4.95;2.83;;;;;;;;;;5050348;28;20205;-67
2022/08/16 14:19:22;;;;;;;3.97;2.55;;;;;;;;;;5041289;28;20225;-67
2022/08/16 14:21:54;;;;;;;2.53;2.33;;;;;;;;;;5049136;28;20227;-67
2022/08/16 14:24:39;;;;;;;2.65;2.45;;;;;;;;;;5059339;28;20218;-66
2022/08/16 14:27:12;;;;;;;3.80;3.05;;;;;;;;;;5044365;28;20190;-67
2022/08/16 14:29:41;;;;;;;2.70;2.47;;;;;;;;;;5064066;28;20213;-66
2022/08/16 14:32:08;;;;;;;2.95;2.65;;;;;;;;;;5048739;28;20209;-67
2022/08/16 14:34:54;;;;;;;2.60;2.40;;;;;;;;;;5058837;28;20275;-66
2022/08/16 14:37:22;;;;;;;2.65;2.45;;;;;;;;;;5053808;28;20206;-66
2022/08/16 14:39:49;;;;;;;3.75;2.78;;;;;;;;;;5051593;28;20222;-66
2022/08/16 14:42:19;;;;;;;3.65;2.47;;;;;;;;;;5050101;28;20229;-67
2022/08/16 14:44:47;;;;;;;2.80;2.60;;;;;;;;;;5064854;28;20244;-67
2022/08/16 14:47:16;;;;;;;4.05;2.70;;;;;;;;;;5067461;28;20220;-67
2022/08/16 14:49:44;;;;;;;3.63;2.83;;;;;;;;;;5062135;28;20221;-67
2022/08/16 14:52:14;;;;;;;2.95;2.67;;;;;;;;;;5057614;28;20214;-67
2022/08/16 14:55:02;;;;;;;2.80;2.60;;;;;;;;;;5063597;28;20205;-66
2022/08/16 14:57:29;;;;;;;4.55;2.55;;;;;;;;;;5060102;28;20324;-67
2022/08/16 14:59:58;;;;;;;3.00;2.75;;;;;;;;;;5066635;28;20223;-67
2022/08/16 15:02:31;;;;;;;2.90;2.70;;;;;;;;;;5067865;28;20655;-66
2022/08/16 15:05:03;;;;;;;5.30;2.22;;;;;;;;;;5066711;28;20218;-67
2022/08/16 15:07:31;;;;;;;3.00;2.80;;;;;;;;;;5075833;28;20204;-67
2022/08/16 15:10:01;;;;;;;4.00;2.33;;;;;;;;;;5062651;28;20217;-67
2022/08/16 15:12:30;;;;;;;5.75;2.90;;;;;;;;;;5050348;28;20212;-67
2022/08/16 15:15:05;;;;;;;4.63;2.58;;;;;;;;;;5042662;28;20205;-66
2022/08/16 15:17:43;;;;;;;2.60;2.40;;;;;;;;;;5051202;28;20210;-66
2022/08/16 15:20:24;;;;;;;4.20;2.88;;;;;;;;;;5059082;28;20229;-66
2022/08/16 15:22:53;;;;;;;2.50;2.30;;;;;;;;;;5053163;28;20298;-66
2022/08/16 15:25:23;;;;;;;2.70;2.40;;;;;;;;;;5042055;28;20222;-66
2022/08/16 15:27:56;;;;;;;3.25;2.67;;;;;;;;;;5054815;28;20201;-66
2022/08/16 15:30:25;;;;;;;5.72;2.60;;;;;;;;;;5053699;28;20229;-66